createdAt,value
2022-08-11T00:01:06.861Z,2.28
2022-08-11T00:03:43.104Z,3.13
2022-08-11T00:06:14.103Z,5.53
2022-08-11T00:08:42.497Z,5.28
2022-08-11T00:11:12.553Z,6.35
2022-08-11T00:13:45.431Z,3.80
2022-08-11T00:16:20.037Z,4.90
2022-08-11T00:18:53.743Z,3.17
2022-08-11T00:21:54.636Z,7.45
2022-08-11T00:24:10.696Z,4.38
2022-08-11T00:26:37.852Z,6.03
2022-08-11T00:29:12.267Z,9.13
2022-08-11T00:31:46.442Z,6.22
2022-08-11T00:34:15.829Z,7.68
2022-08-11T00:36:50.817Z,8.32
2022-08-11T00:39:21.151Z,6.80
2022-08-11T00:42:14.441Z,6.22
2022-08-11T00:45:09.835Z,7.00
2022-08-11T00:48:05.021Z,3.78
2022-08-11T00:50:45.342Z,7.95
2022-08-11T00:53:46.964Z,5.53
2022-08-11T00:57:36.915Z,4.93
2022-08-11T01:00:20.627Z,7.80
2022-08-11T01:03:13.417Z,5.70
2022-08-11T01:05:49.338Z,9.65
2022-08-11T01:08:47.606Z,8.82
2022-08-11T01:11:34.392Z,21.42
2022-08-11T01:14:36.293Z,13.85
2022-08-11T01:17:26.133Z,7.97
2022-08-11T01:20:46.117Z,8.75
2022-08-11T01:23:24.242Z,10.18
2022-08-11T01:26:18.282Z,8.15
2022-08-11T01:29:08.693Z,6.50
2022-08-11T01:31:41.716Z,10.98
2022-08-11T01:34:58.286Z,6.32
2022-08-11T01:37:47.810Z,8.30
2022-08-11T01:40:23.618Z,4.68
2022-08-11T01:43:28.626Z,8.52
2022-08-11T01:45:58.381Z,7.80
2022-08-11T01:48:28.478Z,6.70
2022-08-11T01:51:01.164Z,4.53
2022-08-11T01:56:33.652Z,6.00
2022-08-11T01:59:18.919Z,13.38
2022-08-11T02:01:53.550Z,9.40
2022-08-11T02:04:36.135Z,10.13
2022-08-11T02:07:20.050Z,5.35
2022-08-11T02:10:22.305Z,8.30
2022-08-11T02:13:37.204Z,3.88
2022-08-11T02:16:13.603Z,8.82
2022-08-11T02:19:07.496Z,7.60
2022-08-11T02:22:09.456Z,6.68
2022-08-11T02:24:54.250Z,5.50
2022-08-11T02:27:27.233Z,10.07
2022-08-11T02:30:09.932Z,3.85
2022-08-11T02:33:06.646Z,5.93
2022-08-11T02:35:58.111Z,5.25
2022-08-11T02:38:28.323Z,8.57
2022-08-11T02:41:40.174Z,5.70
2022-08-11T02:44:07.595Z,6.70
2022-08-11T02:46:45.088Z,11.23
2022-08-11T02:49:44.891Z,4.85
2022-08-11T02:52:31.355Z,4.82
2022-08-11T02:55:55.691Z,12.90
2022-08-11T02:58:22.097Z,4.47
2022-08-11T03:01:09.083Z,8.15
2022-08-11T03:03:53.365Z,5.03
2022-08-11T03:06:23.143Z,4.80
2022-08-11T03:08:59.088Z,6.88
2022-08-11T03:12:14.121Z,7.85
2022-08-11T03:15:18.516Z,4.70
2022-08-11T03:18:17.018Z,5.50
2022-08-11T03:21:16.037Z,8.35
2022-08-11T03:24:06.696Z,5.60
2022-08-11T03:26:33.643Z,7.40
2022-08-11T03:29:40.869Z,5.43
2022-08-11T03:32:21.646Z,6.55
2022-08-11T03:34:52.034Z,5.55
2022-08-11T03:37:46.934Z,10.50
2022-08-11T03:40:59.305Z,14.35
2022-08-11T03:43:35.341Z,8.25
2022-08-11T03:46:12.314Z,8.18
2022-08-11T03:48:45.330Z,5.82
2022-08-11T03:51:22.312Z,5.07
2022-08-11T03:53:56.499Z,9.27
2022-08-11T03:56:42.062Z,11.27
2022-08-11T03:59:30.358Z,6.75
2022-08-11T04:01:57.422Z,5.95
2022-08-11T04:04:56.568Z,6.85
2022-08-11T04:07:45.619Z,7.28
2022-08-11T04:10:49.890Z,8.07
2022-08-11T04:13:35.607Z,7.45
2022-08-11T04:16:21.465Z,7.38
2022-08-11T04:19:11.052Z,6.97
2022-08-11T04:21:51.574Z,13.35
2022-08-11T04:24:39.494Z,8.77
2022-08-11T04:27:44.631Z,9.48
2022-08-11T04:30:45.840Z,13.68
2022-08-11T04:33:41.475Z,7.85
2022-08-11T04:36:43.475Z,8.38
2022-08-11T04:39:41.307Z,13.48
2022-08-11T04:42:39.751Z,7.25
2022-08-11T04:45:51.850Z,8.73
2022-08-11T04:48:55.953Z,7.57
2022-08-11T04:52:03.314Z,8.27
2022-08-11T04:55:27.031Z,12.45
2022-08-11T05:01:40.203Z,17.35
2022-08-11T05:04:40.157Z,11.32
2022-08-11T05:07:19.301Z,10.25
2022-08-11T05:10:13.950Z,9.43
2022-08-11T05:12:43.638Z,13.60
2022-08-11T05:15:42.394Z,14.10
2022-08-11T05:18:41.347Z,16.02
2022-08-11T05:21:30.820Z,16.77
2022-08-11T05:24:38.908Z,13.43
2022-08-11T05:27:27.480Z,17.52
2022-08-11T05:30:34.490Z,18.48
2022-08-11T05:33:29.185Z,17.58
2022-08-11T05:36:17.845Z,13.55
2022-08-11T05:39:15.177Z,11.93
2022-08-11T05:42:01.477Z,13.20
2022-08-11T05:44:48.576Z,13.30
2022-08-11T05:47:45.239Z,16.67
2022-08-11T05:50:33.304Z,17.00
2022-08-11T05:53:21.275Z,12.55
2022-08-11T05:56:09.949Z,14.75
2022-08-11T05:58:42.972Z,19.58
2022-08-11T06:01:12.967Z,17.02
2022-08-11T06:04:14.043Z,18.23
2022-08-11T06:07:03.934Z,16.35
2022-08-11T06:09:34.041Z,14.13
2022-08-11T06:12:08.248Z,18.73
2022-08-11T06:14:43.004Z,14.82
2022-08-11T06:17:10.791Z,13.52
2022-08-11T06:19:42.650Z,14.68
2022-08-11T06:22:12.298Z,38.80
2022-08-11T06:24:50.901Z,35.85
2022-08-11T06:27:22.350Z,51.35
2022-08-11T06:29:55.047Z,96.13
2022-08-11T06:32:32.854Z,43.33
2022-08-11T06:35:23.569Z,62.78
2022-08-11T06:38:12.610Z,14.48
2022-08-11T06:41:19.679Z,17.38
2022-08-11T06:44:05.922Z,13.82
2022-08-11T06:46:38.736Z,13.23
2022-08-11T06:49:28.212Z,8.02
2022-08-11T06:52:01.648Z,12.52
2022-08-11T06:54:32.519Z,6.95
2022-08-11T06:57:29.734Z,17.55
2022-08-11T07:00:16.884Z,11.07
2022-08-11T07:02:54.542Z,8.13
2022-08-11T07:05:28.756Z,6.93
2022-08-11T07:09:02.049Z,5.05
2022-08-11T07:12:42.041Z,8.18
2022-08-11T07:16:13.231Z,16.38
2022-08-11T07:18:44.605Z,8.68
2022-08-11T07:22:01.017Z,10.20
2022-08-11T07:25:32.874Z,8.73
2022-08-11T07:28:28.116Z,6.63
2022-08-11T07:31:04.822Z,8.90
2022-08-11T07:34:08.270Z,12.52
2022-08-11T07:36:31.108Z,14.45
2022-08-11T07:38:59.593Z,14.98
2022-08-11T07:41:28.585Z,12.57
2022-08-11T07:44:08.867Z,7.63
2022-08-11T07:46:59.721Z,12.40
2022-08-11T07:49:49.840Z,6.68
2022-08-11T07:52:30.324Z,4.50
2022-08-11T07:55:06.059Z,5.07
2022-08-11T07:58:15.613Z,3.53
2022-08-11T08:01:22.459Z,22.42
2022-08-11T08:04:10.131Z,16.20
2022-08-11T08:06:57.550Z,7.30
2022-08-11T08:09:43.703Z,10.32
2022-08-11T08:12:30.696Z,12.07
2022-08-11T08:15:16.984Z,10.52
2022-08-11T08:18:10.026Z,10.77
2022-08-11T08:20:47.365Z,14.63
2022-08-11T08:23:15.082Z,8.38
2022-08-11T08:25:45.506Z,5.70
2022-08-11T08:28:19.599Z,8.20
2022-08-11T08:30:52.554Z,4.70
2022-08-11T08:33:24.830Z,8.75
2022-08-11T08:36:15.250Z,6.35
2022-08-11T08:38:46.990Z,14.40
2022-08-11T08:41:20.869Z,1.20
2022-08-11T08:43:53.584Z,3.67
2022-08-11T08:46:36.510Z,3.53
2022-08-11T08:49:04.804Z,3.08
2022-08-11T08:51:58.748Z,10.30
2022-08-11T08:54:37.045Z,5.50
2022-08-11T08:57:06.773Z,2.50
2022-08-11T08:59:47.388Z,6.85
2022-08-11T09:02:19.791Z,5.72
2022-08-11T09:05:03.746Z,5.97
2022-08-11T09:07:39.486Z,9.32
2022-08-11T09:10:10.695Z,7.85
2022-08-11T09:12:41.533Z,11.93
2022-08-11T09:15:11.809Z,5.53
2022-08-11T09:17:46.616Z,2.63
2022-08-11T09:20:24.592Z,18.10
2022-08-11T09:26:35.126Z,4.90
2022-08-11T09:29:04.564Z,5.70
2022-08-11T09:31:39.650Z,2.67
2022-08-11T09:34:10.217Z,9.20
2022-08-11T09:36:58.224Z,3.42
2022-08-11T09:39:45.819Z,4.90
2022-08-11T09:42:16.416Z,5.28
2022-08-11T09:44:50.651Z,1.33
2022-08-11T09:47:24.539Z,7.78
2022-08-11T09:49:56.115Z,6.57
2022-08-11T09:52:24.644Z,2.60
2022-08-11T09:54:53.368Z,3.70
2022-08-11T09:57:43.958Z,2.83
2022-08-11T10:00:14.367Z,8.70
2022-08-11T10:02:47.135Z,7.60
2022-08-11T10:05:38.034Z,4.22
2022-08-11T10:08:07.272Z,7.18
2022-08-11T10:10:36.755Z,2.67
2022-08-11T10:14:31.820Z,2.83
2022-08-11T10:16:15.647Z,5.18
2022-08-11T10:18:52.056Z,4.00
2022-08-11T10:22:16.485Z,4.40
2022-08-11T10:25:03.658Z,2.85
2022-08-11T10:27:40.367Z,2.90
2022-08-11T10:30:37.145Z,4.65
2022-08-11T10:33:36.737Z,2.78
2022-08-11T10:36:06.156Z,6.40
2022-08-11T10:38:46.911Z,10.85
2022-08-11T10:41:33.518Z,6.13
2022-08-11T10:44:04.043Z,4.65
2022-08-11T10:46:50.505Z,2.67
2022-08-11T10:49:20.274Z,16.45
2022-08-11T10:52:06.515Z,3.92
2022-08-11T10:54:54.559Z,8.38
2022-08-11T10:57:41.763Z,15.15
2022-08-11T11:00:15.080Z,9.30
2022-08-11T11:02:46.657Z,3.10
2022-08-11T11:05:34.893Z,5.80
2022-08-11T11:08:31.219Z,10.45
2022-08-11T11:10:59.435Z,6.45
2022-08-11T11:13:53.176Z,13.13
2022-08-11T11:16:42.686Z,6.97
2022-08-11T11:19:11.570Z,8.27
2022-08-11T11:21:39.513Z,6.97
2022-08-11T11:24:19.315Z,3.08
2022-08-11T11:26:55.910Z,8.52
2022-08-11T11:29:46.143Z,5.55
2022-08-11T11:32:13.178Z,7.75
2022-08-11T11:34:48.562Z,2.92
2022-08-11T11:37:23.743Z,7.68
2022-08-11T11:39:52.912Z,9.68
2022-08-11T11:42:21.830Z,8.65
2022-08-11T11:44:49.510Z,5.15
2022-08-11T11:47:21.771Z,6.30
2022-08-11T11:49:50.150Z,7.53
2022-08-11T11:52:20.357Z,2.75
2022-08-11T11:54:50.220Z,8.25
2022-08-11T11:57:38.621Z,7.93
2022-08-11T12:00:33.046Z,2.75
2022-08-11T12:03:08.212Z,11.48
2022-08-11T12:05:37.320Z,3.60
2022-08-11T12:08:15.925Z,4.05
2022-08-11T12:11:13.112Z,3.88
2022-08-11T12:13:42.081Z,6.32
2022-08-11T12:16:33.612Z,2.35
2022-08-11T12:19:16.941Z,4.35
2022-08-11T12:24:51.252Z,23.27
2022-08-11T12:27:25.468Z,6.40
2022-08-11T12:29:55.811Z,16.00
2022-08-11T12:32:27.276Z,12.77
2022-08-11T12:34:56.691Z,3.75
2022-08-11T12:37:30.139Z,8.63
2022-08-11T12:40:43.660Z,9.70
2022-08-11T12:43:38.399Z,8.80
2022-08-11T12:46:31.765Z,5.55
2022-08-11T12:49:19.008Z,2.60
2022-08-11T12:52:14.799Z,7.80
2022-08-11T12:54:46.680Z,9.68
2022-08-11T12:57:46.055Z,2.53
2022-08-11T13:00:33.537Z,3.63
2022-08-11T13:03:20.466Z,5.45
2022-08-11T13:05:49.650Z,7.63
2022-08-11T13:08:18.202Z,3.97
2022-08-11T13:11:05.586Z,5.40
2022-08-11T13:13:53.954Z,5.82
2022-08-11T13:16:23.432Z,5.97
2022-08-11T13:18:53.438Z,3.50
2022-08-11T13:21:21.901Z,5.55
2022-08-11T13:24:01.473Z,5.45
2022-08-11T13:26:46.862Z,2.17
2022-08-11T13:29:25.651Z,4.38
2022-08-11T13:31:56.015Z,7.28
2022-08-11T13:34:25.293Z,4.63
2022-08-11T13:36:55.721Z,3.55
2022-08-11T13:39:32.115Z,24.02
2022-08-11T13:42:01.652Z,7.47
2022-08-11T13:44:31.454Z,5.13
2022-08-11T13:47:04.207Z,4.20
2022-08-11T13:49:34.828Z,4.63
2022-08-11T13:52:03.437Z,17.40
2022-08-11T13:54:34.843Z,13.20
2022-08-11T13:57:08.256Z,3.70
2022-08-11T13:59:43.853Z,4.13
2022-08-11T14:02:29.292Z,3.35
2022-08-11T14:05:25.029Z,3.47
2022-08-11T14:07:58.119Z,6.38
2022-08-11T14:10:30.063Z,9.52
2022-08-11T14:13:18.717Z,5.57
2022-08-11T14:15:48.472Z,5.22
2022-08-11T14:18:30.848Z,6.30
2022-08-11T14:21:19.285Z,3.40
2022-08-11T14:23:50.254Z,2.92
2022-08-11T14:26:29.450Z,7.50
2022-08-11T14:29:05.990Z,5.38
2022-08-11T14:31:35.693Z,4.60
2022-08-11T14:34:06.419Z,10.50
2022-08-11T14:36:39.757Z,6.07
2022-08-11T14:39:18.206Z,3.88
2022-08-11T14:42:14.825Z,7.47
2022-08-11T14:45:03.270Z,6.85
2022-08-11T14:47:35.264Z,5.95
2022-08-11T14:50:11.567Z,2.25
2022-08-11T14:52:45.017Z,5.35
2022-08-11T14:55:32.454Z,6.50
2022-08-11T14:58:01.644Z,4.60
2022-08-11T15:00:29.283Z,3.90
2022-08-11T15:03:12.927Z,5.75
2022-08-11T15:05:58.415Z,4.43
2022-08-11T15:08:47.642Z,4.90
2022-08-11T15:11:36.158Z,7.60
2022-08-11T15:14:06.624Z,10.57
2022-08-11T15:16:54.960Z,5.75
2022-08-11T15:19:24.971Z,4.63
2022-08-11T15:22:10.607Z,6.90
2022-08-11T15:24:38.307Z,5.03
2022-08-11T15:27:42.990Z,2.80
2022-08-11T15:30:33.081Z,3.78
2022-08-11T15:33:30.676Z,4.43
2022-08-11T15:36:18.922Z,4.60
2022-08-11T15:39:02.242Z,5.50
2022-08-11T15:42:12.478Z,3.35
2022-08-11T15:45:03.725Z,3.58
2022-08-11T15:47:38.983Z,3.00
2022-08-11T15:50:14.075Z,2.58
2022-08-11T15:52:49.493Z,4.75
2022-08-11T15:55:18.413Z,2.55
2022-08-11T15:58:18.324Z,6.57
2022-08-11T16:01:08.855Z,11.80
2022-08-11T16:04:09.818Z,3.15
2022-08-11T16:06:49.633Z,4.30
2022-08-11T16:10:07.613Z,1.55
2022-08-11T16:13:06.185Z,2.90
2022-08-11T16:15:56.867Z,6.40
2022-08-11T16:18:40.489Z,4.60
2022-08-11T16:21:33.917Z,2.90
2022-08-11T16:24:03.490Z,3.50
2022-08-11T16:27:07.523Z,2.63
2022-08-11T16:29:21.594Z,6.53
2022-08-11T16:32:11.388Z,16.90
2022-08-11T16:34:58.985Z,5.22
2022-08-11T16:37:46.269Z,5.85
2022-08-11T16:40:15.079Z,7.00
2022-08-11T16:43:10.480Z,5.53
2022-08-11T16:45:59.710Z,3.35
2022-08-11T16:48:38.939Z,3.55
2022-08-11T16:51:08.435Z,2.47
2022-08-11T16:53:59.664Z,4.18
2022-08-11T16:56:34.948Z,5.28
2022-08-11T16:59:17.681Z,5.82
2022-08-11T17:01:53.616Z,8.23
2022-08-11T17:04:48.902Z,10.63
2022-08-11T17:07:41.512Z,3.25
2022-08-11T17:11:04.115Z,6.47
2022-08-11T17:13:42.331Z,8.73
2022-08-11T17:16:12.720Z,5.80
2022-08-11T17:18:47.713Z,3.47
2022-08-11T17:21:27.325Z,5.32
2022-08-11T17:23:58.764Z,3.67
2022-08-11T17:26:59.395Z,4.47
2022-08-11T17:29:54.347Z,3.38
2022-08-11T17:32:56.768Z,3.55
2022-08-11T17:35:38.507Z,2.85
2022-08-11T17:38:10.099Z,4.85
2022-08-11T17:40:40.157Z,8.02
2022-08-11T17:43:27.945Z,7.30
2022-08-11T17:46:15.422Z,6.22
2022-08-11T17:48:47.793Z,3.70
2022-08-11T17:51:38.240Z,5.80
2022-08-11T17:54:26.363Z,4.82
2022-08-11T17:57:20.526Z,4.30
2022-08-11T17:59:54.105Z,3.67
2022-08-11T18:02:54.078Z,4.80
2022-08-11T18:05:35.803Z,5.45
2022-08-11T18:08:25.456Z,1.70
2022-08-11T18:11:12.717Z,7.55
2022-08-11T18:14:06.570Z,7.10
2022-08-11T18:16:52.238Z,6.20
2022-08-11T18:19:37.906Z,5.38
2022-08-11T18:22:46.647Z,6.80
2022-08-11T18:25:35.477Z,2.80
2022-08-11T18:28:25.337Z,5.82
2022-08-11T18:34:10.846Z,4.50
2022-08-11T18:37:19.420Z,14.30
2022-08-11T18:40:20.856Z,1.75
2022-08-11T18:43:09.509Z,3.92
2022-08-11T18:46:06.939Z,6.53
2022-08-11T18:49:00.595Z,3.35
2022-08-11T18:51:47.079Z,4.93
2022-08-11T18:54:35.914Z,5.03
2022-08-11T18:57:25.435Z,8.45
2022-08-11T19:00:13.166Z,8.98
2022-08-11T19:02:59.836Z,7.13
2022-08-11T19:06:37.009Z,4.20
2022-08-11T19:09:05.019Z,8.93
2022-08-11T19:11:53.314Z,2.22
2022-08-11T19:14:40.545Z,10.98
2022-08-11T19:17:44.173Z,8.75
2022-08-11T19:20:37.930Z,3.63
2022-08-11T19:23:25.703Z,8.88
2022-08-11T19:26:12.225Z,5.53
2022-08-11T19:29:00.262Z,6.22
2022-08-11T19:31:47.436Z,10.30
2022-08-11T19:34:36.265Z,11.20
2022-08-11T19:37:25.421Z,6.65
2022-08-11T19:40:13.569Z,5.65
2022-08-11T19:43:02.343Z,6.85
2022-08-11T19:45:52.181Z,8.65
2022-08-11T19:48:40.794Z,5.10
2022-08-11T19:51:28.606Z,7.60
2022-08-11T19:54:15.330Z,8.68
2022-08-11T19:57:03.195Z,9.48
2022-08-11T19:59:50.667Z,12.85
2022-08-11T20:02:39.266Z,17.42
2022-08-11T20:05:26.319Z,14.75
2022-08-11T20:08:14.733Z,5.00
2022-08-11T20:11:03.604Z,7.40
2022-08-11T20:13:50.220Z,5.20
2022-08-11T20:16:38.898Z,4.93
2022-08-11T20:19:54.949Z,11.45
2022-08-11T20:22:34.748Z,5.55
2022-08-11T20:25:23.890Z,5.45
2022-08-11T20:28:12.205Z,8.73
2022-08-11T20:31:02.158Z,6.10
2022-08-11T20:33:49.290Z,12.73
2022-08-11T20:36:35.619Z,11.98
2022-08-11T20:39:22.280Z,8.40
2022-08-11T20:42:09.762Z,10.82
2022-08-11T20:44:57.953Z,11.85
2022-08-11T20:47:59.340Z,11.63
2022-08-11T20:50:47.593Z,9.00
2022-08-11T20:53:39.131Z,11.27
2022-08-11T20:59:21.567Z,10.32
2022-08-11T21:02:10.539Z,7.07
2022-08-11T21:05:00.330Z,6.60
2022-08-11T21:07:56.761Z,7.05
2022-08-11T21:10:50.579Z,10.00
2022-08-11T21:13:41.563Z,6.28
2022-08-11T21:16:32.096Z,8.45
2022-08-11T21:19:59.984Z,4.75
2022-08-11T21:22:59.129Z,5.38
2022-08-11T21:26:02.102Z,6.18
2022-08-11T21:28:50.229Z,10.45
2022-08-11T21:31:37.486Z,10.32
2022-08-11T21:34:24.836Z,20.30
2022-08-11T21:37:11.622Z,13.00
2022-08-11T21:40:00.637Z,19.80
2022-08-11T21:42:47.673Z,17.17
2022-08-11T21:45:35.431Z,18.33
2022-08-11T21:48:23.303Z,20.45
2022-08-11T21:51:09.042Z,17.95
2022-08-11T21:53:55.751Z,28.38
2022-08-11T21:56:45.110Z,16.10
2022-08-11T21:59:35.370Z,22.40
2022-08-11T22:02:21.502Z,17.27
2022-08-11T22:05:07.550Z,11.65
2022-08-11T22:07:52.916Z,11.50
2022-08-11T22:10:42.297Z,8.50
2022-08-11T22:13:31.884Z,9.45
2022-08-11T22:16:18.764Z,7.50
2022-08-11T22:19:06.168Z,4.85
2022-08-11T22:22:01.397Z,9.18
2022-08-11T22:24:51.661Z,7.88
2022-08-11T22:27:38.585Z,7.72
2022-08-11T22:30:30.006Z,4.70
2022-08-11T22:33:24.449Z,4.43
2022-08-11T22:36:13.955Z,5.30
2022-08-11T22:39:01.141Z,8.77
2022-08-11T22:41:47.473Z,9.07
2022-08-11T22:44:33.058Z,7.18
2022-08-11T22:47:21.295Z,8.52
2022-08-11T22:50:15.789Z,8.18
2022-08-11T22:53:02.613Z,7.50
2022-08-11T22:55:48.849Z,21.05
2022-08-11T22:58:36.036Z,9.68
2022-08-11T23:01:22.270Z,7.07
2022-08-11T23:04:08.240Z,6.45
2022-08-11T23:06:54.382Z,6.72
2022-08-11T23:09:42.605Z,8.43
2022-08-11T23:12:28.333Z,10.73
2022-08-11T23:15:14.225Z,4.18
2022-08-11T23:18:00.464Z,4.95
2022-08-11T23:20:55.102Z,15.02
2022-08-11T23:23:42.449Z,6.18
2022-08-11T23:26:30.060Z,8.27
2022-08-11T23:29:16.651Z,8.88
2022-08-11T23:32:04.701Z,10.85
2022-08-11T23:35:04.136Z,13.05
2022-08-11T23:38:02.885Z,8.40
2022-08-11T23:40:48.582Z,4.88
2022-08-11T23:43:42.398Z,5.90
2022-08-11T23:46:28.502Z,10.25
2022-08-11T23:49:17.186Z,7.53
2022-08-11T23:52:03.810Z,11.35
2022-08-11T23:54:50.567Z,9.20
2022-08-11T23:57:36.982Z,5.97
